sensor_id;sensor_type;location;lat;lon;timestamp;temperature;humidity
21023;DHT22;10669;51.076;3.714;2022-10-16T00:01:05;14.60;99.90
21023;DHT22;10669;51.076;3.714;2022-10-16T00:03:31;14.60;99.90
21023;DHT22;10669;51.076;3.714;2022-10-16T00:06:00;14.60;99.90
21023;DHT22;10669;51.076;3.714;2022-10-16T00:08:26;14.60;99.90
21023;DHT22;10669;51.076;3.714;2022-10-16T00:10:58;14.60;99.90
21023;DHT22;10669;51.076;3.714;2022-10-16T00:13:25;14.50;99.90
21023;DHT22;10669;51.076;3.714;2022-10-16T00:15:50;14.40;99.90
21023;DHT22;10669;51.076;3.714;2022-10-16T00:18:19;14.30;99.90
21023;DHT22;10669;51.076;3.714;2022-10-16T00:20:45;14.30;99.90
21023;DHT22;10669;51.076;3.714;2022-10-16T00:23:10;14.20;99.90
21023;DHT22;10669;51.076;3.714;2022-10-16T00:25:36;14.20;99.90
21023;DHT22;10669;51.076;3.714;2022-10-16T00:28:01;14.20;99.90
21023;DHT22;10669;51.076;3.714;2022-10-16T00:30:27;14.20;99.90
21023;DHT22;10669;51.076;3.714;2022-10-16T00:32:53;14.10;99.90
21023;DHT22;10669;51.076;3.714;2022-10-16T00:35:20;14.20;99.90
21023;DHT22;10669;51.076;3.714;2022-10-16T00:37:45;14.30;99.90
21023;DHT22;10669;51.076;3.714;2022-10-16T00:40:11;14.30;99.90
21023;DHT22;10669;51.076;3.714;2022-10-16T00:42:37;14.30;99.90
21023;DHT22;10669;51.076;3.714;2022-10-16T00:45:03;14.30;99.90
21023;DHT22;10669;51.076;3.714;2022-10-16T00:47:34;14.30;99.90
21023;DHT22;10669;51.076;3.714;2022-10-16T00:50:22;14.20;99.90
21023;DHT22;10669;51.076;3.714;2022-10-16T00:52:50;14.30;99.90
21023;DHT22;10669;51.076;3.714;2022-10-16T00:55:17;14.20;99.90
21023;DHT22;10669;51.076;3.714;2022-10-16T00:57:44;14.20;99.90
21023;DHT22;10669;51.076;3.714;2022-10-16T01:00:13;14.30;99.90
21023;DHT22;10669;51.076;3.714;2022-10-16T01:02:39;14.30;99.90
21023;DHT22;10669;51.076;3.714;2022-10-16T01:05:05;14.20;99.90
21023;DHT22;10669;51.076;3.714;2022-10-16T01:10:44;14.10;99.90
21023;DHT22;10669;51.076;3.714;2022-10-16T01:13:21;14.00;99.90
21023;DHT22;10669;51.076;3.714;2022-10-16T01:16:18;14.00;99.90
21023;DHT22;10669;51.076;3.714;2022-10-16T01:18:57;14.00;99.90
21023;DHT22;10669;51.076;3.714;2022-10-16T01:21:29;13.90;99.90
21023;DHT22;10669;51.076;3.714;2022-10-16T01:24:17;13.90;99.90
21023;DHT22;10669;51.076;3.714;2022-10-16T01:29:57;13.80;99.90
21023;DHT22;10669;51.076;3.714;2022-10-16T01:32:28;13.90;99.90
21023;DHT22;10669;51.076;3.714;2022-10-16T01:40:19;13.90;99.90
21023;DHT22;10669;51.076;3.714;2022-10-16T01:42:53;13.80;99.90
21023;DHT22;10669;51.076;3.714;2022-10-16T01:45:20;13.80;99.90
21023;DHT22;10669;51.076;3.714;2022-10-16T01:47:48;13.90;99.90
21023;DHT22;10669;51.076;3.714;2022-10-16T01:50:16;13.80;99.90
21023;DHT22;10669;51.076;3.714;2022-10-16T01:52:46;13.80;99.90
21023;DHT22;10669;51.076;3.714;2022-10-16T01:55:19;13.80;99.90
21023;DHT22;10669;51.076;3.714;2022-10-16T01:57:48;13.80;99.90
21023;DHT22;10669;51.076;3.714;2022-10-16T02:00:16;13.80;99.90
21023;DHT22;10669;51.076;3.714;2022-10-16T02:02:45;13.70;99.90
21023;DHT22;10669;51.076;3.714;2022-10-16T02:05:22;13.80;99.90
21023;DHT22;10669;51.076;3.714;2022-10-16T02:07:50;13.70;99.90
21023;DHT22;10669;51.076;3.714;2022-10-16T02:10:16;13.70;99.90
21023;DHT22;10669;51.076;3.714;2022-10-16T02:12:49;13.70;99.90
21023;DHT22;10669;51.076;3.714;2022-10-16T02:15:16;13.70;99.90
21023;DHT22;10669;51.076;3.714;2022-10-16T02:17:42;13.70;99.90
21023;DHT22;10669;51.076;3.714;2022-10-16T02:20:08;13.70;99.90
21023;DHT22;10669;51.076;3.714;2022-10-16T02:22:43;13.80;99.90
21023;DHT22;10669;51.076;3.714;2022-10-16T02:27:56;13.70;99.90
21023;DHT22;10669;51.076;3.714;2022-10-16T02:30:39;13.80;99.90
21023;DHT22;10669;51.076;3.714;2022-10-16T02:33:09;13.70;99.90
21023;DHT22;10669;51.076;3.714;2022-10-16T02:35:37;13.80;99.90
21023;DHT22;10669;51.076;3.714;2022-10-16T02:38:04;13.80;99.90
21023;DHT22;10669;51.076;3.714;2022-10-16T02:40:30;13.70;99.90
21023;DHT22;10669;51.076;3.714;2022-10-16T02:42:56;13.80;99.90
21023;DHT22;10669;51.076;3.714;2022-10-16T02:45:23;13.70;99.90
21023;DHT22;10669;51.076;3.714;2022-10-16T02:47:49;13.70;99.90
21023;DHT22;10669;51.076;3.714;2022-10-16T02:50:15;13.80;99.90
21023;DHT22;10669;51.076;3.714;2022-10-16T02:52:41;13.80;99.90
21023;DHT22;10669;51.076;3.714;2022-10-16T02:55:06;13.70;99.90
21023;DHT22;10669;51.076;3.714;2022-10-16T02:57:32;13.70;99.90
21023;DHT22;10669;51.076;3.714;2022-10-16T02:59:58;13.70;99.90
21023;DHT22;10669;51.076;3.714;2022-10-16T03:02:24;13.80;99.90
21023;DHT22;10669;51.076;3.714;2022-10-16T03:04:50;13.70;99.90
21023;DHT22;10669;51.076;3.714;2022-10-16T03:07:16;13.80;99.90
21023;DHT22;10669;51.076;3.714;2022-10-16T03:09:41;13.80;99.90
21023;DHT22;10669;51.076;3.714;2022-10-16T03:12:07;13.90;99.90
21023;DHT22;10669;51.076;3.714;2022-10-16T03:14:34;13.80;99.90
21023;DHT22;10669;51.076;3.714;2022-10-16T03:17:01;13.70;99.90
21023;DHT22;10669;51.076;3.714;2022-10-16T03:19:26;13.70;99.90
21023;DHT22;10669;51.076;3.714;2022-10-16T03:21:53;13.70;99.90
21023;DHT22;10669;51.076;3.714;2022-10-16T03:24:19;13.60;99.90
21023;DHT22;10669;51.076;3.714;2022-10-16T03:26:44;13.50;99.90
21023;DHT22;10669;51.076;3.714;2022-10-16T03:29:10;13.50;99.90
21023;DHT22;10669;51.076;3.714;2022-10-16T03:31:36;13.50;99.90
21023;DHT22;10669;51.076;3.714;2022-10-16T03:34:01;13.50;99.90
21023;DHT22;10669;51.076;3.714;2022-10-16T03:36:27;13.60;99.90
21023;DHT22;10669;51.076;3.714;2022-10-16T03:38:52;13.50;99.90
21023;DHT22;10669;51.076;3.714;2022-10-16T03:41:18;13.50;99.90
21023;DHT22;10669;51.076;3.714;2022-10-16T03:43:44;13.50;99.90
21023;DHT22;10669;51.076;3.714;2022-10-16T03:46:09;13.40;99.90
21023;DHT22;10669;51.076;3.714;2022-10-16T03:48:36;13.30;99.90
21023;DHT22;10669;51.076;3.714;2022-10-16T03:51:02;13.30;99.90
21023;DHT22;10669;51.076;3.714;2022-10-16T03:53:30;13.40;99.90
21023;DHT22;10669;51.076;3.714;2022-10-16T03:55:56;13.40;99.90
21023;DHT22;10669;51.076;3.714;2022-10-16T03:58:22;13.40;99.90
21023;DHT22;10669;51.076;3.714;2022-10-16T04:00:47;13.30;99.90
21023;DHT22;10669;51.076;3.714;2022-10-16T04:03:13;13.40;99.90
21023;DHT22;10669;51.076;3.714;2022-10-16T04:05:40;13.30;99.90
21023;DHT22;10669;51.076;3.714;2022-10-16T04:08:06;13.30;99.90
21023;DHT22;10669;51.076;3.714;2022-10-16T04:10:31;13.40;99.90
21023;DHT22;10669;51.076;3.714;2022-10-16T04:12:57;13.40;99.90
21023;DHT22;10669;51.076;3.714;2022-10-16T04:15:25;13.30;99.90
21023;DHT22;10669;51.076;3.714;2022-10-16T04:17:51;13.30;99.90
21023;DHT22;10669;51.076;3.714;2022-10-16T04:20:19;13.30;99.90
21023;DHT22;10669;51.076;3.714;2022-10-16T04:22:44;13.30;99.90
21023;DHT22;10669;51.076;3.714;2022-10-16T04:25:10;13.30;99.90
21023;DHT22;10669;51.076;3.714;2022-10-16T04:27:39;13.30;99.90
21023;DHT22;10669;51.076;3.714;2022-10-16T04:30:06;13.30;99.90
21023;DHT22;10669;51.076;3.714;2022-10-16T04:32:32;13.30;99.90
21023;DHT22;10669;51.076;3.714;2022-10-16T04:34:57;13.30;99.90
21023;DHT22;10669;51.076;3.714;2022-10-16T04:37:24;13.30;99.90
21023;DHT22;10669;51.076;3.714;2022-10-16T04:39:51;13.30;99.90
21023;DHT22;10669;51.076;3.714;2022-10-16T04:42:17;13.30;99.90
21023;DHT22;10669;51.076;3.714;2022-10-16T04:44:43;13.30;99.90
21023;DHT22;10669;51.076;3.714;2022-10-16T04:47:08;13.30;99.90
21023;DHT22;10669;51.076;3.714;2022-10-16T04:49:34;13.20;99.90
21023;DHT22;10669;51.076;3.714;2022-10-16T04:52:00;13.30;99.90
21023;DHT22;10669;51.076;3.714;2022-10-16T04:54:25;13.40;99.90
21023;DHT22;10669;51.076;3.714;2022-10-16T04:56:51;13.40;99.90
21023;DHT22;10669;51.076;3.714;2022-10-16T04:59:18;13.40;99.90
21023;DHT22;10669;51.076;3.714;2022-10-16T05:01:44;13.40;99.90
21023;DHT22;10669;51.076;3.714;2022-10-16T05:04:12;13.30;99.90
21023;DHT22;10669;51.076;3.714;2022-10-16T05:06:38;13.30;99.90
21023;DHT22;10669;51.076;3.714;2022-10-16T05:09:05;13.40;99.90
21023;DHT22;10669;51.076;3.714;2022-10-16T05:11:31;13.40;99.90
21023;DHT22;10669;51.076;3.714;2022-10-16T05:13:58;13.40;99.90
21023;DHT22;10669;51.076;3.714;2022-10-16T05:16:23;13.50;99.90
21023;DHT22;10669;51.076;3.714;2022-10-16T05:18:49;13.50;99.90
21023;DHT22;10669;51.076;3.714;2022-10-16T05:21:16;13.60;99.90
21023;DHT22;10669;51.076;3.714;2022-10-16T05:23:43;13.60;99.90
21023;DHT22;10669;51.076;3.714;2022-10-16T05:26:09;13.60;99.90
21023;DHT22;10669;51.076;3.714;2022-10-16T05:28:38;13.70;99.90
21023;DHT22;10669;51.076;3.714;2022-10-16T05:31:08;13.70;99.90
21023;DHT22;10669;51.076;3.714;2022-10-16T05:33:37;13.80;99.90
21023;DHT22;10669;51.076;3.714;2022-10-16T05:36:04;13.80;99.90
21023;DHT22;10669;51.076;3.714;2022-10-16T05:38:29;13.80;99.90
21023;DHT22;10669;51.076;3.714;2022-10-16T05:40:55;13.80;99.90
21023;DHT22;10669;51.076;3.714;2022-10-16T05:43:21;13.90;99.90
21023;DHT22;10669;51.076;3.714;2022-10-16T05:45:58;13.90;99.90
21023;DHT22;10669;51.076;3.714;2022-10-16T05:48:24;13.90;99.90
21023;DHT22;10669;51.076;3.714;2022-10-16T05:53:23;13.60;99.90
21023;DHT22;10669;51.076;3.714;2022-10-16T05:55:55;13.60;99.90
21023;DHT22;10669;51.076;3.714;2022-10-16T05:58:23;13.70;99.90
21023;DHT22;10669;51.076;3.714;2022-10-16T06:01:20;13.70;99.90
21023;DHT22;10669;51.076;3.714;2022-10-16T06:03:46;13.60;99.90
21023;DHT22;10669;51.076;3.714;2022-10-16T06:06:17;13.60;99.90
21023;DHT22;10669;51.076;3.714;2022-10-16T06:08:45;13.70;99.90
21023;DHT22;10669;51.076;3.714;2022-10-16T06:11:18;13.50;99.90
21023;DHT22;10669;51.076;3.714;2022-10-16T06:13:49;13.60;99.90
21023;DHT22;10669;51.076;3.714;2022-10-16T06:16:17;13.50;99.90
21023;DHT22;10669;51.076;3.714;2022-10-16T06:18:46;13.50;99.90
21023;DHT22;10669;51.076;3.714;2022-10-16T06:21:17;13.40;99.90
21023;DHT22;10669;51.076;3.714;2022-10-16T06:23:43;13.50;99.90
21023;DHT22;10669;51.076;3.714;2022-10-16T06:26:11;13.50;99.90
21023;DHT22;10669;51.076;3.714;2022-10-16T06:28:39;13.60;99.90
21023;DHT22;10669;51.076;3.714;2022-10-16T06:31:08;13.60;99.90
21023;DHT22;10669;51.076;3.714;2022-10-16T06:33:34;13.60;99.90
21023;DHT22;10669;51.076;3.714;2022-10-16T06:36:05;13.60;99.90
21023;DHT22;10669;51.076;3.714;2022-10-16T06:38:31;13.70;99.90
21023;DHT22;10669;51.076;3.714;2022-10-16T06:40:57;13.70;99.90
21023;DHT22;10669;51.076;3.714;2022-10-16T06:43:24;13.70;99.90
21023;DHT22;10669;51.076;3.714;2022-10-16T06:45:54;13.70;99.90
21023;DHT22;10669;51.076;3.714;2022-10-16T06:48:20;13.60;99.90
21023;DHT22;10669;51.076;3.714;2022-10-16T06:51:07;13.60;99.90
21023;DHT22;10669;51.076;3.714;2022-10-16T06:53:36;13.60;99.90
21023;DHT22;10669;51.076;3.714;2022-10-16T06:56:27;13.60;99.90
21023;DHT22;10669;51.076;3.714;2022-10-16T06:58:53;13.60;99.90
21023;DHT22;10669;51.076;3.714;2022-10-16T07:01:21;13.60;99.90
21023;DHT22;10669;51.076;3.714;2022-10-16T07:03:48;13.60;99.90
21023;DHT22;10669;51.076;3.714;2022-10-16T07:06:16;13.60;99.90
21023;DHT22;10669;51.076;3.714;2022-10-16T07:08:44;13.60;99.90
21023;DHT22;10669;51.076;3.714;2022-10-16T07:11:15;13.60;99.90
21023;DHT22;10669;51.076;3.714;2022-10-16T07:13:44;13.50;99.90
21023;DHT22;10669;51.076;3.714;2022-10-16T07:16:20;13.60;99.90
21023;DHT22;10669;51.076;3.714;2022-10-16T07:18:47;13.60;99.90
21023;DHT22;10669;51.076;3.714;2022-10-16T07:21:19;13.60;99.90
21023;DHT22;10669;51.076;3.714;2022-10-16T07:23:50;13.60;99.90
21023;DHT22;10669;51.076;3.714;2022-10-16T07:26:16;13.60;99.90
21023;DHT22;10669;51.076;3.714;2022-10-16T07:28:43;13.70;99.90
21023;DHT22;10669;51.076;3.714;2022-10-16T07:31:12;13.70;99.90
21023;DHT22;10669;51.076;3.714;2022-10-16T07:33:39;13.80;99.90
21023;DHT22;10669;51.076;3.714;2022-10-16T07:36:06;13.80;99.90
21023;DHT22;10669;51.076;3.714;2022-10-16T07:38:31;13.90;99.90
21023;DHT22;10669;51.076;3.714;2022-10-16T07:40:58;14.00;99.90
21023;DHT22;10669;51.076;3.714;2022-10-16T07:43:25;14.00;99.90
21023;DHT22;10669;51.076;3.714;2022-10-16T07:45:51;14.10;99.90
21023;DHT22;10669;51.076;3.714;2022-10-16T07:48:17;14.10;99.90
21023;DHT22;10669;51.076;3.714;2022-10-16T07:50:49;14.10;99.90
21023;DHT22;10669;51.076;3.714;2022-10-16T07:53:18;14.10;99.90
21023;DHT22;10669;51.076;3.714;2022-10-16T07:55:43;14.00;99.90
21023;DHT22;10669;51.076;3.714;2022-10-16T07:58:09;14.10;99.90
21023;DHT22;10669;51.076;3.714;2022-10-16T08:00:37;14.20;99.90
21023;DHT22;10669;51.076;3.714;2022-10-16T08:03:02;14.20;99.90
21023;DHT22;10669;51.076;3.714;2022-10-16T08:05:29;14.20;99.90
21023;DHT22;10669;51.076;3.714;2022-10-16T08:07:56;14.30;99.90
21023;DHT22;10669;51.076;3.714;2022-10-16T08:10:24;14.30;99.90
21023;DHT22;10669;51.076;3.714;2022-10-16T08:12:51;14.30;99.90
21023;DHT22;10669;51.076;3.714;2022-10-16T08:15:17;14.40;99.90
21023;DHT22;10669;51.076;3.714;2022-10-16T08:17:43;14.50;99.90
21023;DHT22;10669;51.076;3.714;2022-10-16T08:20:10;14.50;99.90
21023;DHT22;10669;51.076;3.714;2022-10-16T08:22:36;14.60;99.90
21023;DHT22;10669;51.076;3.714;2022-10-16T08:25:02;14.60;99.90
21023;DHT22;10669;51.076;3.714;2022-10-16T08:27:32;14.70;99.90
21023;DHT22;10669;51.076;3.714;2022-10-16T08:29:58;14.70;99.90
21023;DHT22;10669;51.076;3.714;2022-10-16T08:32:24;14.70;99.90
21023;DHT22;10669;51.076;3.714;2022-10-16T08:34:49;14.80;99.90
21023;DHT22;10669;51.076;3.714;2022-10-16T08:37:15;14.80;99.90
21023;DHT22;10669;51.076;3.714;2022-10-16T08:39:40;14.90;99.90
21023;DHT22;10669;51.076;3.714;2022-10-16T08:50:13;15.20;99.90
21023;DHT22;10669;51.076;3.714;2022-10-16T08:52:41;15.20;99.90
21023;DHT22;10669;51.076;3.714;2022-10-16T08:58:01;15.30;99.90
21023;DHT22;10669;51.076;3.714;2022-10-16T09:00:27;15.30;99.90
21023;DHT22;10669;51.076;3.714;2022-10-16T09:03:11;15.30;99.90
21023;DHT22;10669;51.076;3.714;2022-10-16T09:08:58;15.50;99.90
21023;DHT22;10669;51.076;3.714;2022-10-16T09:14:31;15.50;99.90
21023;DHT22;10669;51.076;3.714;2022-10-16T09:16:57;15.50;99.90
21023;DHT22;10669;51.076;3.714;2022-10-16T09:22:26;15.50;99.90
21023;DHT22;10669;51.076;3.714;2022-10-16T09:24:52;15.70;99.90
21023;DHT22;10669;51.076;3.714;2022-10-16T09:27:19;15.70;99.90
21023;DHT22;10669;51.076;3.714;2022-10-16T09:29:44;15.80;99.90
21023;DHT22;10669;51.076;3.714;2022-10-16T09:32:13;15.70;99.90
21023;DHT22;10669;51.076;3.714;2022-10-16T09:34:43;15.80;99.90
21023;DHT22;10669;51.076;3.714;2022-10-16T09:37:13;15.80;99.90
21023;DHT22;10669;51.076;3.714;2022-10-16T09:39:51;15.90;99.90
21023;DHT22;10669;51.076;3.714;2022-10-16T09:42:19;15.90;99.90
21023;DHT22;10669;51.076;3.714;2022-10-16T09:44:50;15.90;99.90
21023;DHT22;10669;51.076;3.714;2022-10-16T09:47:22;16.00;99.90
21023;DHT22;10669;51.076;3.714;2022-10-16T09:50:03;16.10;99.90
21023;DHT22;10669;51.076;3.714;2022-10-16T09:52:32;16.20;99.90
21023;DHT22;10669;51.076;3.714;2022-10-16T09:55:00;16.30;99.90
21023;DHT22;10669;51.076;3.714;2022-10-16T09:57:26;16.40;99.90
21023;DHT22;10669;51.076;3.714;2022-10-16T09:59:57;16.50;99.90
21023;DHT22;10669;51.076;3.714;2022-10-16T10:02:34;16.60;99.90
21023;DHT22;10669;51.076;3.714;2022-10-16T10:05:00;16.60;99.90
21023;DHT22;10669;51.076;3.714;2022-10-16T10:07:37;16.80;99.90
21023;DHT22;10669;51.076;3.714;2022-10-16T10:10:21;17.00;99.90
21023;DHT22;10669;51.076;3.714;2022-10-16T10:12:47;17.30;99.90
21023;DHT22;10669;51.076;3.714;2022-10-16T10:15:14;17.30;99.90
21023;DHT22;10669;51.076;3.714;2022-10-16T10:17:59;17.60;99.90
21023;DHT22;10669;51.076;3.714;2022-10-16T10:20:26;17.70;99.90
21023;DHT22;10669;51.076;3.714;2022-10-16T10:22:53;17.90;99.90
21023;DHT22;10669;51.076;3.714;2022-10-16T10:30:34;18.00;99.90
21023;DHT22;10669;51.076;3.714;2022-10-16T10:35:54;18.20;99.90
21023;DHT22;10669;51.076;3.714;2022-10-16T10:38:34;18.20;99.90
21023;DHT22;10669;51.076;3.714;2022-10-16T10:44:11;17.80;99.90
21023;DHT22;10669;51.076;3.714;2022-10-16T10:47:00;17.80;99.90
21023;DHT22;10669;51.076;3.714;2022-10-16T10:49:48;17.90;99.90
21023;DHT22;10669;51.076;3.714;2022-10-16T10:52:41;18.10;99.90
21023;DHT22;10669;51.076;3.714;2022-10-16T10:55:23;18.20;99.90
21023;DHT22;10669;51.076;3.714;2022-10-16T10:58:11;18.40;99.90
21023;DHT22;10669;51.076;3.714;2022-10-16T11:06:36;19.00;99.90
21023;DHT22;10669;51.076;3.714;2022-10-16T11:09:21;19.10;99.90
21023;DHT22;10669;51.076;3.714;2022-10-16T11:12:02;19.10;99.90
21023;DHT22;10669;51.076;3.714;2022-10-16T11:14:34;19.00;99.90
21023;DHT22;10669;51.076;3.714;2022-10-16T11:17:22;18.90;99.90
21023;DHT22;10669;51.076;3.714;2022-10-16T11:20:14;18.90;99.90
21023;DHT22;10669;51.076;3.714;2022-10-16T11:25:26;18.70;99.90
21023;DHT22;10669;51.076;3.714;2022-10-16T11:30:30;19.10;99.90
21023;DHT22;10669;51.076;3.714;2022-10-16T11:33:25;19.20;99.90
21023;DHT22;10669;51.076;3.714;2022-10-16T11:35:59;19.40;99.90
21023;DHT22;10669;51.076;3.714;2022-10-16T11:43:52;18.70;99.90
21023;DHT22;10669;51.076;3.714;2022-10-16T11:46:21;18.60;99.90
21023;DHT22;10669;51.076;3.714;2022-10-16T11:49:03;18.70;99.90
21023;DHT22;10669;51.076;3.714;2022-10-16T11:51:39;18.80;99.90
21023;DHT22;10669;51.076;3.714;2022-10-16T11:54:24;19.10;99.90
21023;DHT22;10669;51.076;3.714;2022-10-16T11:56:57;19.30;99.90
21023;DHT22;10669;51.076;3.714;2022-10-16T11:59:31;19.20;99.90
21023;DHT22;10669;51.076;3.714;2022-10-16T12:07:49;19.50;99.90
21023;DHT22;10669;51.076;3.714;2022-10-16T12:10:26;19.60;99.90
21023;DHT22;10669;51.076;3.714;2022-10-16T12:12:52;19.60;99.90
21023;DHT22;10669;51.076;3.714;2022-10-16T12:15:32;19.40;99.90
21023;DHT22;10669;51.076;3.714;2022-10-16T12:17:58;19.60;99.90
21023;DHT22;10669;51.076;3.714;2022-10-16T12:20:32;19.60;99.90
21023;DHT22;10669;51.076;3.714;2022-10-16T12:23:00;19.50;99.90
21023;DHT22;10669;51.076;3.714;2022-10-16T12:28:03;19.20;99.90
21023;DHT22;10669;51.076;3.714;2022-10-16T12:30:35;19.40;99.90
21023;DHT22;10669;51.076;3.714;2022-10-16T12:33:04;19.50;99.90
21023;DHT22;10669;51.076;3.714;2022-10-16T12:35:33;19.60;99.90
21023;DHT22;10669;51.076;3.714;2022-10-16T12:38:08;19.70;99.90
21023;DHT22;10669;51.076;3.714;2022-10-16T12:40:44;19.70;99.90
21023;DHT22;10669;51.076;3.714;2022-10-16T12:43:35;19.80;99.90
21023;DHT22;10669;51.076;3.714;2022-10-16T12:48:27;19.80;99.90
21023;DHT22;10669;51.076;3.714;2022-10-16T12:50:54;19.80;99.90
21023;DHT22;10669;51.076;3.714;2022-10-16T12:53:25;19.60;99.90
21023;DHT22;10669;51.076;3.714;2022-10-16T12:58:38;19.50;99.90
21023;DHT22;10669;51.076;3.714;2022-10-16T13:01:49;19.50;99.90
21023;DHT22;10669;51.076;3.714;2022-10-16T13:16:07;20.10;99.90
21023;DHT22;10669;51.076;3.714;2022-10-16T13:22:15;20.50;99.90
21023;DHT22;10669;51.076;3.714;2022-10-16T13:30:29;20.10;99.90
21023;DHT22;10669;51.076;3.714;2022-10-16T13:33:12;20.10;99.90
21023;DHT22;10669;51.076;3.714;2022-10-16T13:35:51;20.20;99.90
21023;DHT22;10669;51.076;3.714;2022-10-16T13:38:19;20.00;99.90
21023;DHT22;10669;51.076;3.714;2022-10-16T13:41:05;19.90;99.90
21023;DHT22;10669;51.076;3.714;2022-10-16T13:43:49;20.10;99.90
21023;DHT22;10669;51.076;3.714;2022-10-16T13:46:23;20.30;99.90
21023;DHT22;10669;51.076;3.714;2022-10-16T13:49:11;20.50;99.90
21023;DHT22;10669;51.076;3.714;2022-10-16T13:51:37;20.60;99.90
21023;DHT22;10669;51.076;3.714;2022-10-16T13:54:03;20.80;99.90
21023;DHT22;10669;51.076;3.714;2022-10-16T13:56:32;20.70;99.90
21023;DHT22;10669;51.076;3.714;2022-10-16T13:59:05;20.60;99.90
21023;DHT22;10669;51.076;3.714;2022-10-16T14:01:39;20.30;99.90
21023;DHT22;10669;51.076;3.714;2022-10-16T14:04:10;20.20;99.90
21023;DHT22;10669;51.076;3.714;2022-10-16T14:06:36;19.90;99.90
21023;DHT22;10669;51.076;3.714;2022-10-16T14:09:26;19.80;99.90
21023;DHT22;10669;51.076;3.714;2022-10-16T14:12:01;19.70;99.90
21023;DHT22;10669;51.076;3.714;2022-10-16T14:14:42;19.80;99.90
21023;DHT22;10669;51.076;3.714;2022-10-16T14:17:29;19.90;99.90
21023;DHT22;10669;51.076;3.714;2022-10-16T14:19:59;19.90;99.90
21023;DHT22;10669;51.076;3.714;2022-10-16T14:22:40;19.90;99.90
21023;DHT22;10669;51.076;3.714;2022-10-16T14:31:01;19.90;99.90
21023;DHT22;10669;51.076;3.714;2022-10-16T14:33:33;19.80;99.90
21023;DHT22;10669;51.076;3.714;2022-10-16T14:38:42;19.90;99.90
21023;DHT22;10669;51.076;3.714;2022-10-16T14:41:12;20.00;99.90
21023;DHT22;10669;51.076;3.714;2022-10-16T14:43:42;19.90;99.90
21023;DHT22;10669;51.076;3.714;2022-10-16T14:46:14;19.80;99.90
21023;DHT22;10669;51.076;3.714;2022-10-16T14:48:47;19.60;99.90
21023;DHT22;10669;51.076;3.714;2022-10-16T14:51:17;19.50;99.90
21023;DHT22;10669;51.076;3.714;2022-10-16T14:53:44;19.40;99.90
21023;DHT22;10669;51.076;3.714;2022-10-16T14:56:24;19.40;99.90
21023;DHT22;10669;51.076;3.714;2022-10-16T14:58:52;19.30;99.90
21023;DHT22;10669;51.076;3.714;2022-10-16T15:01:18;19.20;99.90
21023;DHT22;10669;51.076;3.714;2022-10-16T15:03:44;19.10;99.90
21023;DHT22;10669;51.076;3.714;2022-10-16T15:06:16;19.20;99.90
21023;DHT22;10669;51.076;3.714;2022-10-16T15:08:42;19.20;99.90
21023;DHT22;10669;51.076;3.714;2022-10-16T15:11:18;19.20;99.90
21023;DHT22;10669;51.076;3.714;2022-10-16T15:13:47;19.10;99.90
21023;DHT22;10669;51.076;3.714;2022-10-16T15:16:15;19.20;99.90
21023;DHT22;10669;51.076;3.714;2022-10-16T15:18:47;19.20;99.90
21023;DHT22;10669;51.076;3.714;2022-10-16T15:21:24;19.20;99.90
21023;DHT22;10669;51.076;3.714;2022-10-16T15:23:51;19.30;99.90
21023;DHT22;10669;51.076;3.714;2022-10-16T15:26:24;19.30;99.90
21023;DHT22;10669;51.076;3.714;2022-10-16T15:28:51;19.20;99.90
21023;DHT22;10669;51.076;3.714;2022-10-16T15:31:17;19.00;99.90
21023;DHT22;10669;51.076;3.714;2022-10-16T15:33:44;19.10;99.90
21023;DHT22;10669;51.076;3.714;2022-10-16T15:36:15;19.20;99.90
21023;DHT22;10669;51.076;3.714;2022-10-16T15:38:40;19.30;99.90
21023;DHT22;10669;51.076;3.714;2022-10-16T15:41:07;19.30;99.90
21023;DHT22;10669;51.076;3.714;2022-10-16T15:43:33;19.20;99.90
21023;DHT22;10669;51.076;3.714;2022-10-16T15:46:05;19.10;99.90
21023;DHT22;10669;51.076;3.714;2022-10-16T15:48:37;19.10;99.90
21023;DHT22;10669;51.076;3.714;2022-10-16T15:51:07;19.00;99.90
21023;DHT22;10669;51.076;3.714;2022-10-16T15:53:35;19.00;99.90
21023;DHT22;10669;51.076;3.714;2022-10-16T15:56:09;18.90;99.90
21023;DHT22;10669;51.076;3.714;2022-10-16T15:58:37;18.60;99.90
21023;DHT22;10669;51.076;3.714;2022-10-16T16:01:03;18.40;99.90
21023;DHT22;10669;51.076;3.714;2022-10-16T16:03:30;18.40;99.90
21023;DHT22;10669;51.076;3.714;2022-10-16T16:05:56;18.90;99.90
21023;DHT22;10669;51.076;3.714;2022-10-16T16:08:21;18.90;99.90
21023;DHT22;10669;51.076;3.714;2022-10-16T16:11:22;18.90;99.90
21023;DHT22;10669;51.076;3.714;2022-10-16T16:13:49;19.00;99.90
21023;DHT22;10669;51.076;3.714;2022-10-16T16:16:16;19.10;99.90
21023;DHT22;10669;51.076;3.714;2022-10-16T16:18:42;19.20;99.90
21023;DHT22;10669;51.076;3.714;2022-10-16T16:21:11;19.30;99.90
21023;DHT22;10669;51.076;3.714;2022-10-16T16:23:39;19.40;99.90
21023;DHT22;10669;51.076;3.714;2022-10-16T16:26:15;19.30;99.90
21023;DHT22;10669;51.076;3.714;2022-10-16T16:28:42;19.20;99.90
21023;DHT22;10669;51.076;3.714;2022-10-16T16:31:08;19.20;99.90
21023;DHT22;10669;51.076;3.714;2022-10-16T16:33:34;19.30;99.90
21023;DHT22;10669;51.076;3.714;2022-10-16T16:36:04;19.30;99.90
21023;DHT22;10669;51.076;3.714;2022-10-16T16:38:32;19.50;99.90
21023;DHT22;10669;51.076;3.714;2022-10-16T16:41:23;19.20;99.90
21023;DHT22;10669;51.076;3.714;2022-10-16T16:43:50;18.60;99.90
21023;DHT22;10669;51.076;3.714;2022-10-16T16:46:18;18.60;99.90
21023;DHT22;10669;51.076;3.714;2022-10-16T16:48:44;18.60;99.90
21023;DHT22;10669;51.076;3.714;2022-10-16T16:51:16;18.80;99.90
21023;DHT22;10669;51.076;3.714;2022-10-16T16:53:44;19.00;99.90
21023;DHT22;10669;51.076;3.714;2022-10-16T16:56:10;19.10;99.90
21023;DHT22;10669;51.076;3.714;2022-10-16T16:58:37;19.20;99.90
21023;DHT22;10669;51.076;3.714;2022-10-16T17:01:02;19.00;99.90
21023;DHT22;10669;51.076;3.714;2022-10-16T17:03:32;19.00;99.90
21023;DHT22;10669;51.076;3.714;2022-10-16T17:06:04;19.00;99.90
21023;DHT22;10669;51.076;3.714;2022-10-16T17:08:32;18.80;99.90
21023;DHT22;10669;51.076;3.714;2022-10-16T17:10:58;18.70;99.90
21023;DHT22;10669;51.076;3.714;2022-10-16T17:13:25;18.50;99.90
21023;DHT22;10669;51.076;3.714;2022-10-16T17:15:53;18.60;99.90
21023;DHT22;10669;51.076;3.714;2022-10-16T17:18:21;18.80;99.90
21023;DHT22;10669;51.076;3.714;2022-10-16T17:20:48;18.70;99.90
21023;DHT22;10669;51.076;3.714;2022-10-16T17:23:16;18.70;99.90
21023;DHT22;10669;51.076;3.714;2022-10-16T17:25:42;18.80;99.90
21023;DHT22;10669;51.076;3.714;2022-10-16T17:28:09;19.00;99.90
21023;DHT22;10669;51.076;3.714;2022-10-16T17:30:39;19.20;99.90
21023;DHT22;10669;51.076;3.714;2022-10-16T17:33:05;18.90;99.90
21023;DHT22;10669;51.076;3.714;2022-10-16T17:35:40;18.80;99.90